sensor_id;sensor_type;location;lat;lon;timestamp;pressure;altitude;pressure_sealevel;temperature;humidity
64352;BME280;50680;52.626;-8.668;2023-06-26T00:02:16;101665.31;;;11.90;100.00
64352;BME280;50680;52.626;-8.668;2023-06-26T00:04:44;101662.88;;;11.87;100.00
64352;BME280;50680;52.626;-8.668;2023-06-26T00:07:11;101664.88;;;11.82;100.00
64352;BME280;50680;52.626;-8.668;2023-06-26T00:09:37;101665.03;;;11.79;100.00
64352;BME280;50680;52.626;-8.668;2023-06-26T00:12:05;101665.31;;;11.73;100.00
64352;BME280;50680;52.626;-8.668;2023-06-26T00:14:32;101646.91;;;11.55;100.00
64352;BME280;50680;52.626;-8.668;2023-06-26T00:16:59;101676.13;;;11.66;100.00
64352;BME280;50680;52.626;-8.668;2023-06-26T00:19:26;101677.13;;;11.64;100.00
64352;BME280;50680;52.626;-8.668;2023-06-26T00:21:52;101678.97;;;11.62;100.00
64352;BME280;50680;52.626;-8.668;2023-06-26T00:24:19;101677.06;;;11.65;100.00
64352;BME280;50680;52.626;-8.668;2023-06-26T00:26:47;101676.91;;;11.69;100.00
64352;BME280;50680;52.626;-8.668;2023-06-26T00:29:14;101678.69;;;11.68;100.00
64352;BME280;50680;52.626;-8.668;2023-06-26T00:31:41;101671.66;;;11.69;100.00
64352;BME280;50680;52.626;-8.668;2023-06-26T00:34:08;101676.78;;;11.72;100.00
64352;BME280;50680;52.626;-8.668;2023-06-26T00:36:35;101677.53;;;11.74;100.00
64352;BME280;50680;52.626;-8.668;2023-06-26T00:39:02;101679.72;;;11.83;100.00
64352;BME280;50680;52.626;-8.668;2023-06-26T00:41:30;101681.09;;;11.90;100.00
64352;BME280;50680;52.626;-8.668;2023-06-26T00:43:56;101694.59;;;12.01;100.00
64352;BME280;50680;52.626;-8.668;2023-06-26T00:46:23;101685.06;;;11.99;100.00
64352;BME280;50680;52.626;-8.668;2023-06-26T00:48:52;101703.59;;;12.15;100.00
64352;BME280;50680;52.626;-8.668;2023-06-26T00:51:19;101709.47;;;12.20;100.00
64352;BME280;50680;52.626;-8.668;2023-06-26T00:53:47;101707.47;;;12.25;100.00
64352;BME280;50680;52.626;-8.668;2023-06-26T00:56:15;101706.72;;;12.21;100.00
64352;BME280;50680;52.626;-8.668;2023-06-26T00:58:43;101711.91;;;12.23;100.00
64352;BME280;50680;52.626;-8.668;2023-06-26T01:01:10;101706.22;;;12.15;100.00
64352;BME280;50680;52.626;-8.668;2023-06-26T01:03:40;101703.59;;;12.15;100.00
64352;BME280;50680;52.626;-8.668;2023-06-26T01:06:08;101708.53;;;12.03;100.00
64352;BME280;50680;52.626;-8.668;2023-06-26T01:08:39;101695.19;;;11.89;100.00
64352;BME280;50680;52.626;-8.668;2023-06-26T01:11:06;101675.38;;;11.64;100.00
64352;BME280;50680;52.626;-8.668;2023-06-26T01:13:34;101705.81;;;11.69;100.00
64352;BME280;50680;52.626;-8.668;2023-06-26T01:16:02;101701.41;;;11.50;100.00
64352;BME280;50680;52.626;-8.668;2023-06-26T01:18:32;101700.22;;;11.38;100.00
64352;BME280;50680;52.626;-8.668;2023-06-26T01:21:00;101708.59;;;11.27;100.00
64352;BME280;50680;52.626;-8.668;2023-06-26T01:23:34;101710.25;;;11.11;100.00
64352;BME280;50680;52.626;-8.668;2023-06-26T01:26:29;101710.50;;;11.05;100.00
64352;BME280;50680;52.626;-8.668;2023-06-26T01:28:59;101703.97;;;10.95;100.00
64352;BME280;50680;52.626;-8.668;2023-06-26T01:31:28;101703.31;;;10.89;100.00
64352;BME280;50680;52.626;-8.668;2023-06-26T01:34:00;101695.59;;;10.86;100.00
64352;BME280;50680;52.626;-8.668;2023-06-26T01:36:27;101691.34;;;10.84;100.00
64352;BME280;50680;52.626;-8.668;2023-06-26T01:38:54;101701.84;;;10.84;100.00
64352;BME280;50680;52.626;-8.668;2023-06-26T01:41:21;101696.59;;;10.84;100.00
64352;BME280;50680;52.626;-8.668;2023-06-26T01:51:50;101715.81;;;10.64;100.00
64352;BME280;50680;52.626;-8.668;2023-06-26T01:54:21;101707.19;;;10.62;100.00
64352;BME280;50680;52.626;-8.668;2023-06-26T01:56:49;101712.53;;;10.59;100.00
64352;BME280;50680;52.626;-8.668;2023-06-26T01:59:20;101715.09;;;10.60;100.00
64352;BME280;50680;52.626;-8.668;2023-06-26T02:01:48;101706.53;;;10.57;100.00
64352;BME280;50680;52.626;-8.668;2023-06-26T02:04:15;101711.75;;;10.57;100.00
64352;BME280;50680;52.626;-8.668;2023-06-26T02:06:42;101716.94;;;10.58;100.00
64352;BME280;50680;52.626;-8.668;2023-06-26T02:09:09;101724.03;;;10.56;100.00
64352;BME280;50680;52.626;-8.668;2023-06-26T02:11:36;101717.28;;;10.50;100.00
64352;BME280;50680;52.626;-8.668;2023-06-26T02:14:03;101713.06;;;10.46;100.00
64352;BME280;50680;52.626;-8.668;2023-06-26T02:16:30;101707.47;;;10.56;100.00
64352;BME280;50680;52.626;-8.668;2023-06-26T02:18:57;101713.34;;;10.61;100.00
64352;BME280;50680;52.626;-8.668;2023-06-26T02:21:24;101719.69;;;10.76;100.00
64352;BME280;50680;52.626;-8.668;2023-06-26T02:23:51;101724.97;;;10.95;100.00
64352;BME280;50680;52.626;-8.668;2023-06-26T02:26:18;101727.81;;;11.09;100.00
64352;BME280;50680;52.626;-8.668;2023-06-26T02:28:45;101732.44;;;11.23;100.00
64352;BME280;50680;52.626;-8.668;2023-06-26T02:31:11;101718.19;;;11.28;100.00
64352;BME280;50680;52.626;-8.668;2023-06-26T02:33:38;101728.69;;;11.28;100.00
64352;BME280;50680;52.626;-8.668;2023-06-26T02:36:05;101730.56;;;11.26;100.00
64352;BME280;50680;52.626;-8.668;2023-06-26T02:38:32;101727.13;;;11.24;100.00
64352;BME280;50680;52.626;-8.668;2023-06-26T02:40:59;101728.25;;;11.19;100.00
64352;BME280;50680;52.626;-8.668;2023-06-26T02:43:26;101730.44;;;11.09;100.00
64352;BME280;50680;52.626;-8.668;2023-06-26T02:45:53;101716.19;;;10.96;100.00
64352;BME280;50680;52.626;-8.668;2023-06-26T02:48:19;101731.81;;;10.99;100.00
64352;BME280;50680;52.626;-8.668;2023-06-26T02:50:46;101728.59;;;10.92;100.00
64352;BME280;50680;52.626;-8.668;2023-06-26T02:53:13;101737.72;;;10.83;100.00
64352;BME280;50680;52.626;-8.668;2023-06-26T02:55:40;101741.50;;;10.97;100.00
64352;BME280;50680;52.626;-8.668;2023-06-26T02:58:07;101736.78;;;10.84;100.00
64352;BME280;50680;52.626;-8.668;2023-06-26T03:00:34;101730.75;;;10.82;100.00
64352;BME280;50680;52.626;-8.668;2023-06-26T03:03:01;101744.78;;;10.81;100.00
64352;BME280;50680;52.626;-8.668;2023-06-26T03:05:28;101747.41;;;10.81;100.00
64352;BME280;50680;52.626;-8.668;2023-06-26T03:07:55;101747.41;;;10.81;100.00
64352;BME280;50680;52.626;-8.668;2023-06-26T03:10:22;101748.34;;;10.80;100.00
64352;BME280;50680;52.626;-8.668;2023-06-26T03:12:49;101743.09;;;10.80;100.00
64352;BME280;50680;52.626;-8.668;2023-06-26T03:15:15;101739.53;;;10.81;100.00
64352;BME280;50680;52.626;-8.668;2023-06-26T03:17:42;101746.63;;;10.79;100.00
64352;BME280;50680;52.626;-8.668;2023-06-26T03:20:09;101749.47;;;10.75;100.00
64352;BME280;50680;52.626;-8.668;2023-06-26T03:22:37;101743.34;;;10.74;100.00
64352;BME280;50680;52.626;-8.668;2023-06-26T03:25:04;101742.75;;;10.67;100.00
64352;BME280;50680;52.626;-8.668;2023-06-26T03:27:31;101743.63;;;10.68;100.00
64352;BME280;50680;52.626;-8.668;2023-06-26T03:29:58;101737.88;;;10.60;100.00
64352;BME280;50680;52.626;-8.668;2023-06-26T03:32:25;101736.38;;;10.54;100.00
64352;BME280;50680;52.626;-8.668;2023-06-26T03:34:52;101739.72;;;10.58;100.00
64352;BME280;50680;52.626;-8.668;2023-06-26T03:37:19;101739.50;;;10.62;100.00
64352;BME280;50680;52.626;-8.668;2023-06-26T03:39:46;101736.97;;;10.61;100.00
64352;BME280;50680;52.626;-8.668;2023-06-26T03:42:13;101743.75;;;10.65;100.00
64352;BME280;50680;52.626;-8.668;2023-06-26T03:44:40;101745.31;;;10.69;100.00
64352;BME280;50680;52.626;-8.668;2023-06-26T03:47:06;101752.16;;;10.73;100.00
64352;BME280;50680;52.626;-8.668;2023-06-26T03:49:33;101758.91;;;10.79;100.00
64352;BME280;50680;52.626;-8.668;2023-06-26T03:52:00;101757.53;;;10.90;100.00
64352;BME280;50680;52.626;-8.668;2023-06-26T03:54:27;101753.56;;;11.01;100.00
64352;BME280;50680;52.626;-8.668;2023-06-26T03:56:54;101763.47;;;11.15;100.00
64352;BME280;50680;52.626;-8.668;2023-06-26T03:59:20;101764.38;;;11.33;100.00
64352;BME280;50680;52.626;-8.668;2023-06-26T04:01:47;101769.00;;;11.46;100.00
64352;BME280;50680;52.626;-8.668;2023-06-26T04:04:17;101760.41;;;11.62;100.00
64352;BME280;50680;52.626;-8.668;2023-06-26T04:06:43;101758.78;;;11.78;100.00
64352;BME280;50680;52.626;-8.668;2023-06-26T04:09:10;101766.28;;;11.86;100.00
64352;BME280;50680;52.626;-8.668;2023-06-26T04:11:37;101772.25;;;11.90;100.00
64352;BME280;50680;52.626;-8.668;2023-06-26T04:14:04;101774.94;;;11.88;100.00
64352;BME280;50680;52.626;-8.668;2023-06-26T04:16:31;101771.28;;;11.92;100.00
64352;BME280;50680;52.626;-8.668;2023-06-26T04:18:58;101774.94;;;11.88;100.00
64352;BME280;50680;52.626;-8.668;2023-06-26T04:21:24;101754.94;;;11.85;100.00
64352;BME280;50680;52.626;-8.668;2023-06-26T04:23:51;101774.22;;;12.03;100.00
64352;BME280;50680;52.626;-8.668;2023-06-26T04:26:18;101764.91;;;12.15;100.00
64352;BME280;50680;52.626;-8.668;2023-06-26T04:28:45;101760.19;;;12.22;100.00
64352;BME280;50680;52.626;-8.668;2023-06-26T04:31:12;101759.25;;;12.23;100.00
64352;BME280;50680;52.626;-8.668;2023-06-26T04:33:39;101769.75;;;12.23;100.00
64352;BME280;50680;52.626;-8.668;2023-06-26T04:36:09;101771.47;;;12.24;100.00
64352;BME280;50680;52.626;-8.668;2023-06-26T04:38:35;101785.41;;;12.44;100.00
64352;BME280;50680;52.626;-8.668;2023-06-26T04:41:02;101783.25;;;12.52;100.00
64352;BME280;50680;52.626;-8.668;2023-06-26T04:43:29;101792.53;;;12.59;100.00
64352;BME280;50680;52.626;-8.668;2023-06-26T04:45:56;101789.84;;;12.60;100.00
64352;BME280;50680;52.626;-8.668;2023-06-26T04:48:23;101805.53;;;12.79;100.00
64352;BME280;50680;52.626;-8.668;2023-06-26T04:50:50;101803.81;;;12.96;100.00
64352;BME280;50680;52.626;-8.668;2023-06-26T04:53:21;101807.28;;;13.14;100.00
64352;BME280;50680;52.626;-8.668;2023-06-26T04:55:52;101803.59;;;13.16;100.00
64352;BME280;50680;52.626;-8.668;2023-06-26T04:58:19;101806.94;;;13.38;100.00
64352;BME280;50680;52.626;-8.668;2023-06-26T05:00:46;101813.81;;;13.56;100.00
64352;BME280;50680;52.626;-8.668;2023-06-26T05:03:14;101813.06;;;13.70;100.00
64352;BME280;50680;52.626;-8.668;2023-06-26T05:05:44;101812.41;;;13.82;100.00
64352;BME280;50680;52.626;-8.668;2023-06-26T05:08:21;101819.81;;;13.91;100.00
64352;BME280;50680;52.626;-8.668;2023-06-26T05:10:49;101813.16;;;14.00;100.00
64352;BME280;50680;52.626;-8.668;2023-06-26T05:13:16;101818.53;;;13.99;100.00
64352;BME280;50680;52.626;-8.668;2023-06-26T05:15:48;101816.66;;;14.01;100.00
64352;BME280;50680;52.626;-8.668;2023-06-26T05:18:15;101826.00;;;14.06;100.00
64352;BME280;50680;52.626;-8.668;2023-06-26T05:20:42;101813.69;;;14.07;100.00
64352;BME280;50680;52.626;-8.668;2023-06-26T05:23:11;101807.44;;;14.08;100.00
64352;BME280;50680;52.626;-8.668;2023-06-26T05:25:39;101814.44;;;14.09;100.00
64352;BME280;50680;52.626;-8.668;2023-06-26T05:28:06;101819.03;;;14.05;100.00
64352;BME280;50680;52.626;-8.668;2023-06-26T05:30:36;101823.97;;;13.96;100.00
64352;BME280;50680;52.626;-8.668;2023-06-26T05:33:05;101824.22;;;13.91;100.00
64352;BME280;50680;52.626;-8.668;2023-06-26T05:35:34;101830.09;;;13.96;100.00
64352;BME280;50680;52.626;-8.668;2023-06-26T05:38:03;101824.13;;;13.92;100.00
64352;BME280;50680;52.626;-8.668;2023-06-26T05:40:30;101835.69;;;14.06;100.00
64352;BME280;50680;52.626;-8.668;2023-06-26T05:42:57;101842.00;;;14.03;100.00
64352;BME280;50680;52.626;-8.668;2023-06-26T05:45:24;101842.00;;;14.03;100.00
64352;BME280;50680;52.626;-8.668;2023-06-26T05:47:51;101844.72;;;14.02;100.00
64352;BME280;50680;52.626;-8.668;2023-06-26T05:50:18;101852.66;;;14.02;100.00
64352;BME280;50680;52.626;-8.668;2023-06-26T05:52:46;101851.84;;;14.00;100.00
64352;BME280;50680;52.626;-8.668;2023-06-26T05:55:13;101863.59;;;14.10;100.00
64352;BME280;50680;52.626;-8.668;2023-06-26T05:57:41;101857.81;;;14.19;100.00
64352;BME280;50680;52.626;-8.668;2023-06-26T06:00:08;101860.88;;;14.27;100.00
64352;BME280;50680;52.626;-8.668;2023-06-26T06:02:39;101854.69;;;14.43;100.00
64352;BME280;50680;52.626;-8.668;2023-06-26T06:05:06;101849.59;;;14.56;100.00
64352;BME280;50680;52.626;-8.668;2023-06-26T06:07:33;101844.47;;;14.69;100.00
64352;BME280;50680;52.626;-8.668;2023-06-26T06:10:02;101846.28;;;14.82;100.00
64352;BME280;50680;52.626;-8.668;2023-06-26T06:12:30;101846.50;;;14.94;100.00
64352;BME280;50680;52.626;-8.668;2023-06-26T06:14:57;101841.41;;;15.05;100.00
64352;BME280;50680;52.626;-8.668;2023-06-26T06:17:24;101842.88;;;15.11;100.00
64352;BME280;50680;52.626;-8.668;2023-06-26T06:19:51;101851.94;;;15.21;100.00
64352;BME280;50680;52.626;-8.668;2023-06-26T06:22:18;101852.13;;;15.32;100.00
64352;BME280;50680;52.626;-8.668;2023-06-26T06:24:44;101846.25;;;15.41;100.00
64352;BME280;50680;52.626;-8.668;2023-06-26T06:27:11;101847.88;;;15.44;100.00
64352;BME280;50680;52.626;-8.668;2023-06-26T06:29:38;101835.88;;;15.53;100.00
64352;BME280;50680;52.626;-8.668;2023-06-26T06:32:06;101836.16;;;15.63;100.00
64352;BME280;50680;52.626;-8.668;2023-06-26T06:34:33;101838.91;;;15.61;100.00
64352;BME280;50680;52.626;-8.668;2023-06-26T06:37:00;101839.84;;;15.60;100.00
64352;BME280;50680;52.626;-8.668;2023-06-26T06:39:27;101832.31;;;15.54;100.00
64352;BME280;50680;52.626;-8.668;2023-06-26T06:41:53;101822.56;;;15.54;100.00
64352;BME280;50680;52.626;-8.668;2023-06-26T06:44:20;101826.25;;;15.52;100.00
64352;BME280;50680;52.626;-8.668;2023-06-26T06:46:48;101831.16;;;15.58;100.00
64352;BME280;50680;52.626;-8.668;2023-06-26T06:49:15;101843.53;;;15.57;100.00
64352;BME280;50680;52.626;-8.668;2023-06-26T06:51:42;101841.91;;;15.55;100.00
64352;BME280;50680;52.626;-8.668;2023-06-26T06:54:09;101841.81;;;15.56;100.00
64352;BME280;50680;52.626;-8.668;2023-06-26T06:56:36;101840.78;;;15.59;100.00
64352;BME280;50680;52.626;-8.668;2023-06-26T06:59:03;101846.25;;;15.70;100.00
64352;BME280;50680;52.626;-8.668;2023-06-26T07:01:30;101856.63;;;15.73;100.00
64352;BME280;50680;52.626;-8.668;2023-06-26T07:03:56;101860.63;;;15.81;100.00
64352;BME280;50680;52.626;-8.668;2023-06-26T07:06:24;101865.41;;;16.03;100.00
64352;BME280;50680;52.626;-8.668;2023-06-26T07:08:51;101861.00;;;16.16;100.00
64352;BME280;50680;52.626;-8.668;2023-06-26T07:11:18;101873.31;;;16.30;100.00
64352;BME280;50680;52.626;-8.668;2023-06-26T07:13:44;101873.50;;;16.41;100.00
64352;BME280;50680;52.626;-8.668;2023-06-26T07:16:11;101865.66;;;16.40;100.00
64352;BME280;50680;52.626;-8.668;2023-06-26T07:18:38;101875.41;;;16.39;100.00
64352;BME280;50680;52.626;-8.668;2023-06-26T07:21:05;101893.00;;;16.26;100.00
64352;BME280;50680;52.626;-8.668;2023-06-26T07:23:32;101900.03;;;16.12;100.00
64352;BME280;50680;52.626;-8.668;2023-06-26T07:25:59;101912.28;;;16.01;100.00
64352;BME280;50680;52.626;-8.668;2023-06-26T07:28:26;101901.56;;;16.02;100.00
64352;BME280;50680;52.626;-8.668;2023-06-26T07:30:53;101891.66;;;15.91;100.00
64352;BME280;50680;52.626;-8.668;2023-06-26T07:33:19;101904.72;;;15.80;100.00
64352;BME280;50680;52.626;-8.668;2023-06-26T07:35:47;101909.53;;;15.88;100.00
64352;BME280;50680;52.626;-8.668;2023-06-26T07:38:14;101902.75;;;15.84;100.00
64352;BME280;50680;52.626;-8.668;2023-06-26T07:40:41;101907.25;;;15.96;100.00
64352;BME280;50680;52.626;-8.668;2023-06-26T07:43:07;101905.91;;;16.03;100.00
64352;BME280;50680;52.626;-8.668;2023-06-26T07:45:34;101909.03;;;16.10;100.00
64352;BME280;50680;52.626;-8.668;2023-06-26T07:48:01;101914.59;;;16.20;100.00
64352;BME280;50680;52.626;-8.668;2023-06-26T07:50:28;101909.16;;;16.35;100.00
64352;BME280;50680;52.626;-8.668;2023-06-26T07:52:55;101909.38;;;16.45;100.00
64352;BME280;50680;52.626;-8.668;2023-06-26T07:55:22;101907.53;;;16.60;100.00
64352;BME280;50680;52.626;-8.668;2023-06-26T07:57:49;101904.91;;;16.73;100.00
64352;BME280;50680;52.626;-8.668;2023-06-26T08:00:18;101905.22;;;16.96;100.00
64352;BME280;50680;52.626;-8.668;2023-06-26T08:02:45;101908.41;;;17.01;100.00
64352;BME280;50680;52.626;-8.668;2023-06-26T08:05:12;101906.19;;;17.07;100.00
64352;BME280;50680;52.626;-8.668;2023-06-26T08:07:39;101912.47;;;17.19;100.00
64352;BME280;50680;52.626;-8.668;2023-06-26T08:10:06;101910.88;;;17.17;100.00
64352;BME280;50680;52.626;-8.668;2023-06-26T08:12:33;101908.66;;;17.23;100.00
64352;BME280;50680;52.626;-8.668;2023-06-26T08:15:03;101918.75;;;17.18;100.00
64352;BME280;50680;52.626;-8.668;2023-06-26T08:17:31;101905.88;;;17.12;100.00
64352;BME280;50680;52.626;-8.668;2023-06-26T08:19:58;101905.34;;;17.20;100.00
64352;BME280;50680;52.626;-8.668;2023-06-26T08:22:25;101897.31;;;17.34;100.00
64352;BME280;50680;52.626;-8.668;2023-06-26T08:24:52;101916.59;;;17.75;100.00
64352;BME280;50680;52.626;-8.668;2023-06-26T08:27:19;101916.53;;;18.13;100.00
64352;BME280;50680;52.626;-8.668;2023-06-26T08:29:45;101915.09;;;18.57;100.00
64352;BME280;50680;52.626;-8.668;2023-06-26T08:32:12;101916.88;;;19.16;100.00
64352;BME280;50680;52.626;-8.668;2023-06-26T08:34:39;101919.25;;;19.78;100.00
64352;BME280;50680;52.626;-8.668;2023-06-26T08:37:06;101917.47;;;20.33;100.00
64352;BME280;50680;52.626;-8.668;2023-06-26T08:39:35;101920.00;;;20.78;100.00
64352;BME280;50680;52.626;-8.668;2023-06-26T08:42:02;101915.19;;;21.14;100.00
64352;BME280;50680;52.626;-8.668;2023-06-26T08:44:29;101926.47;;;21.70;100.00
64352;BME280;50680;52.626;-8.668;2023-06-26T08:46:58;101916.31;;;22.04;100.00
64352;BME280;50680;52.626;-8.668;2023-06-26T08:49:31;101932.72;;;22.40;100.00
64352;BME280;50680;52.626;-8.668;2023-06-26T08:52:12;101932.94;;;22.17;100.00
64352;BME280;50680;52.626;-8.668;2023-06-26T08:54:43;101935.50;;;22.39;100.00
64352;BME280;50680;52.626;-8.668;2023-06-26T08:57:12;101933.84;;;22.47;100.00
64352;BME280;50680;52.626;-8.668;2023-06-26T08:59:40;101934.13;;;22.44;100.00
64352;BME280;50680;52.626;-8.668;2023-06-26T09:02:07;101925.69;;;22.39;100.00
64352;BME280;50680;52.626;-8.668;2023-06-26T09:04:34;101920.91;;;22.33;100.00
64352;BME280;50680;52.626;-8.668;2023-06-26T09:07:01;101921.38;;;22.07;100.00
64352;BME280;50680;52.626;-8.668;2023-06-26T09:09:28;101919.97;;;22.13;100.00
64352;BME280;50680;52.626;-8.668;2023-06-26T09:11:55;101926.25;;;22.52;100.00
64352;BME280;50680;52.626;-8.668;2023-06-26T09:14:22;101926.97;;;22.74;100.00
64352;BME280;50680;52.626;-8.668;2023-06-26T09:16:49;101928.22;;;22.80;100.00
64352;BME280;50680;52.626;-8.668;2023-06-26T09:19:16;101935.53;;;22.48;100.00
64352;BME280;50680;52.626;-8.668;2023-06-26T09:21:49;101933.72;;;21.98;100.00
64352;BME280;50680;52.626;-8.668;2023-06-26T09:24:16;101932.88;;;21.36;100.00
64352;BME280;50680;52.626;-8.668;2023-06-26T09:26:43;101939.13;;;21.47;100.00
64352;BME280;50680;52.626;-8.668;2023-06-26T09:29:10;101931.25;;;21.24;100.00
64352;BME280;50680;52.626;-8.668;2023-06-26T09:31:37;101927.31;;;20.97;100.00
64352;BME280;50680;52.626;-8.668;2023-06-26T09:34:08;101931.41;;;21.01;100.00
64352;BME280;50680;52.626;-8.668;2023-06-26T09:36:35;101924.56;;;21.09;100.00
64352;BME280;50680;52.626;-8.668;2023-06-26T09:39:08;101926.00;;;21.13;100.00
64352;BME280;50680;52.626;-8.668;2023-06-26T09:41:40;101914.53;;;21.22;100.00
64352;BME280;50680;52.626;-8.668;2023-06-26T09:44:10;101933.34;;;21.72;100.00
64352;BME280;50680;52.626;-8.668;2023-06-26T09:46:38;101941.59;;;22.00;100.00
64352;BME280;50680;52.626;-8.668;2023-06-26T09:49:10;101928.25;;;22.00;100.00
64352;BME280;50680;52.626;-8.668;2023-06-26T09:51:41;101941.50;;;22.11;100.00
64352;BME280;50680;52.626;-8.668;2023-06-26T09:54:09;101929.25;;;22.09;100.00
64352;BME280;50680;52.626;-8.668;2023-06-26T09:56:36;101933.94;;;21.76;100.00
64352;BME280;50680;52.626;-8.668;2023-06-26T09:59:04;101935.72;;;21.45;100.00
64352;BME280;50680;52.626;-8.668;2023-06-26T10:01:32;101937.09;;;21.39;100.00
64352;BME280;50680;52.626;-8.668;2023-06-26T10:04:00;101950.19;;;21.21;100.00
64352;BME280;50680;52.626;-8.668;2023-06-26T10:06:46;101953.28;;;20.84;100.00
64352;BME280;50680;52.626;-8.668;2023-06-26T10:09:16;101951.88;;;20.80;100.00
64352;BME280;50680;52.626;-8.668;2023-06-26T10:12:01;101950.59;;;20.52;100.00
64352;BME280;50680;52.626;-8.668;2023-06-26T10:14:35;101959.00;;;20.24;100.00
64352;BME280;50680;52.626;-8.668;2023-06-26T10:17:07;101949.25;;;20.02;100.00
64352;BME280;50680;52.626;-8.668;2023-06-26T10:19:37;101955.78;;;19.98;100.00
64352;BME280;50680;52.626;-8.668;2023-06-26T10:22:05;101963.13;;;20.28;100.00
64352;BME280;50680;52.626;-8.668;2023-06-26T10:24:33;101959.84;;;20.36;100.00
64352;BME280;50680;52.626;-8.668;2023-06-26T10:27:10;101968.19;;;20.43;100.00
64352;BME280;50680;52.626;-8.668;2023-06-26T10:29:40;101966.34;;;20.66;100.00
64352;BME280;50680;52.626;-8.668;2023-06-26T10:32:10;101966.94;;;20.70;100.00
64352;BME280;50680;52.626;-8.668;2023-06-26T10:34:39;101975.59;;;20.83;100.00
64352;BME280;50680;52.626;-8.668;2023-06-26T10:37:06;101976.25;;;20.96;100.00
64352;BME280;50680;52.626;-8.668;2023-06-26T10:39:53;101976.16;;;20.87;100.00
64352;BME280;50680;52.626;-8.668;2023-06-26T10:42:34;101980.03;;;20.94;100.00
64352;BME280;50680;52.626;-8.668;2023-06-26T10:45:16;101975.88;;;20.80;100.00
64352;BME280;50680;52.626;-8.668;2023-06-26T10:47:48;101978.69;;;20.99;100.00
64352;BME280;50680;52.626;-8.668;2023-06-26T10:56:05;101968.94;;;21.83;100.00
64352;BME280;50680;52.626;-8.668;2023-06-26T11:03:44;101972.31;;;21.85;100.00
64352;BME280;50680;52.626;-8.668;2023-06-26T11:06:17;101969.66;;;22.25;100.00
64352;BME280;50680;52.626;-8.668;2023-06-26T11:08:59;101982.50;;;22.51;100.00
64352;BME280;50680;52.626;-8.668;2023-06-26T11:14:20;101984.53;;;23.17;100.00
64352;BME280;50680;52.626;-8.668;2023-06-26T11:16:48;101985.94;;;22.82;100.00
64352;BME280;50680;52.626;-8.668;2023-06-26T11:19:19;101992.81;;;23.04;100.00
64352;BME280;50680;52.626;-8.668;2023-06-26T11:21:47;101989.75;;;23.09;100.00
64352;BME280;50680;52.626;-8.668;2023-06-26T11:24:14;101991.00;;;22.95;100.00
64352;BME280;50680;52.626;-8.668;2023-06-26T11:26:42;101994.66;;;23.23;100.00
64352;BME280;50680;52.626;-8.668;2023-06-26T11:29:10;101982.84;;;23.16;100.00
64352;BME280;50680;52.626;-8.668;2023-06-26T11:31:39;101988.47;;;23.33;100.00
64352;BME280;50680;52.626;-8.668;2023-06-26T11:34:11;101998.00;;;23.45;100.00
64352;BME280;50680;52.626;-8.668;2023-06-26T11:36:39;101990.94;;;23.54;100.00
64352;BME280;50680;52.626;-8.668;2023-06-26T11:39:08;101986.44;;;23.54;100.00
64352;BME280;50680;52.626;-8.668;2023-06-26T11:41:37;101994.34;;;23.46;100.00
64352;BME280;50680;52.626;-8.668;2023-06-26T11:44:06;101986.03;;;23.49;100.00
64352;BME280;50680;52.626;-8.668;2023-06-26T11:46:37;101991.06;;;23.62;100.00
64352;BME280;50680;52.626;-8.668;2023-06-26T11:49:07;101993.97;;;23.69;100.00
64352;BME280;50680;52.626;-8.668;2023-06-26T11:51:35;101989.56;;;23.77;100.00
64352;BME280;50680;52.626;-8.668;2023-06-26T11:54:05;101993.41;;;23.75;100.00
64352;BME280;50680;52.626;-8.668;2023-06-26T11:56:32;101996.03;;;23.47;100.00
64352;BME280;50680;52.626;-8.668;2023-06-26T11:59:03;102002.50;;;23.44;100.00
64352;BME280;50680;52.626;-8.668;2023-06-26T12:01:36;102000.88;;;23.14;100.00
64352;BME280;50680;52.626;-8.668;2023-06-26T12:04:05;102001.72;;;23.24;100.00
64352;BME280;50680;52.626;-8.668;2023-06-26T12:06:37;102004.38;;;23.24;100.00
64352;BME280;50680;52.626;-8.668;2023-06-26T12:09:07;102015.50;;;23.30;100.00
64352;BME280;50680;52.626;-8.668;2023-06-26T12:11:38;102012.66;;;23.51;100.00
64352;BME280;50680;52.626;-8.668;2023-06-26T12:14:06;102013.06;;;23.46;100.00
64352;BME280;50680;52.626;-8.668;2023-06-26T12:16:34;102012.66;;;23.41;100.00
64352;BME280;50680;52.626;-8.668;2023-06-26T12:19:06;102017.50;;;23.27;100.00
64352;BME280;50680;52.626;-8.668;2023-06-26T12:24:01;102012.97;;;22.99;100.00
64352;BME280;50680;52.626;-8.668;2023-06-26T12:26:31;102017.59;;;22.77;100.00
64352;BME280;50680;52.626;-8.668;2023-06-26T12:29:12;102022.78;;;22.79;100.00
64352;BME280;50680;52.626;-8.668;2023-06-26T12:31:43;102019.69;;;22.73;100.00
64352;BME280;50680;52.626;-8.668;2023-06-26T12:34:12;102017.31;;;22.80;100.00
64352;BME280;50680;52.626;-8.668;2023-06-26T12:36:46;102024.09;;;22.84;100.00
64352;BME280;50680;52.626;-8.668;2023-06-26T12:39:21;102025.88;;;22.84;100.00
64352;BME280;50680;52.626;-8.668;2023-06-26T12:44:20;102025.91;;;22.74;100.00
64352;BME280;50680;52.626;-8.668;2023-06-26T12:46:49;102016.59;;;22.78;100.00
64352;BME280;50680;52.626;-8.668;2023-06-26T12:49:16;102021.41;;;23.04;100.00
64352;BME280;50680;52.626;-8.668;2023-06-26T12:51:47;102027.03;;;23.40;100.00
64352;BME280;50680;52.626;-8.668;2023-06-26T12:54:14;102018.50;;;23.74;100.00
64352;BME280;50680;52.626;-8.668;2023-06-26T12:56:41;102014.66;;;23.86;100.00
64352;BME280;50680;52.626;-8.668;2023-06-26T12:59:08;102025.44;;;24.14;100.00
64352;BME280;50680;52.626;-8.668;2023-06-26T13:01:35;102024.41;;;24.25;100.00
64352;BME280;50680;52.626;-8.668;2023-06-26T13:04:02;102022.53;;;24.25;100.00